sensor_id;sensor_type;location;lat;lon;timestamp;temperature;humidity
4406;DHT22;2216;53.806;11.598;2023-03-26T00:00:54;8.00;76.60
4406;DHT22;2216;53.806;11.598;2023-03-26T00:03:21;8.00;76.60
4406;DHT22;2216;53.806;11.598;2023-03-26T00:05:47;8.00;76.60
4406;DHT22;2216;53.806;11.598;2023-03-26T00:08:15;8.00;76.60
4406;DHT22;2216;53.806;11.598;2023-03-26T00:10:41;8.00;77.00
4406;DHT22;2216;53.806;11.598;2023-03-26T00:13:09;8.00;76.70
4406;DHT22;2216;53.806;11.598;2023-03-26T00:15:36;8.00;76.70
4406;DHT22;2216;53.806;11.598;2023-03-26T00:18:02;8.00;76.70
4406;DHT22;2216;53.806;11.598;2023-03-26T00:20:29;8.20;76.90
4406;DHT22;2216;53.806;11.598;2023-03-26T00:22:57;8.00;76.70
4406;DHT22;2216;53.806;11.598;2023-03-26T00:25:25;8.10;76.80
4406;DHT22;2216;53.806;11.598;2023-03-26T00:27:51;8.00;76.70
4406;DHT22;2216;53.806;11.598;2023-03-26T00:30:17;8.10;77.50
4406;DHT22;2216;53.806;11.598;2023-03-26T00:32:43;8.00;76.70
4406;DHT22;2216;53.806;11.598;2023-03-26T00:35:09;8.00;76.80
4406;DHT22;2216;53.806;11.598;2023-03-26T00:37:35;8.10;76.90
4406;DHT22;2216;53.806;11.598;2023-03-26T00:40:01;8.10;76.80
4406;DHT22;2216;53.806;11.598;2023-03-26T00:42:32;8.10;76.90
4406;DHT22;2216;53.806;11.598;2023-03-26T00:44:58;8.10;76.80
4406;DHT22;2216;53.806;11.598;2023-03-26T00:47:24;8.10;76.90
4406;DHT22;2216;53.806;11.598;2023-03-26T00:49:51;8.00;76.70
4406;DHT22;2216;53.806;11.598;2023-03-26T00:52:17;8.10;77.00
4406;DHT22;2216;53.806;11.598;2023-03-26T00:54:47;8.00;77.50
4406;DHT22;2216;53.806;11.598;2023-03-26T00:57:14;8.00;76.80
4406;DHT22;2216;53.806;11.598;2023-03-26T00:59:40;8.10;76.90
4406;DHT22;2216;53.806;11.598;2023-03-26T01:02:07;8.00;77.00
4406;DHT22;2216;53.806;11.598;2023-03-26T01:04:36;8.00;76.80
4406;DHT22;2216;53.806;11.598;2023-03-26T01:07:12;8.10;76.90
4406;DHT22;2216;53.806;11.598;2023-03-26T01:09:43;8.00;76.90
4406;DHT22;2216;53.806;11.598;2023-03-26T01:12:19;8.00;76.90
4406;DHT22;2216;53.806;11.598;2023-03-26T01:14:48;8.00;76.80
4406;DHT22;2216;53.806;11.598;2023-03-26T01:17:14;8.00;76.90
4406;DHT22;2216;53.806;11.598;2023-03-26T01:22:42;8.10;77.00
4406;DHT22;2216;53.806;11.598;2023-03-26T01:25:11;8.00;76.80
4406;DHT22;2216;53.806;11.598;2023-03-26T01:27:46;8.00;76.80
4406;DHT22;2216;53.806;11.598;2023-03-26T01:33:31;8.00;76.80
4406;DHT22;2216;53.806;11.598;2023-03-26T01:36:07;8.00;76.80
4406;DHT22;2216;53.806;11.598;2023-03-26T01:38:40;8.00;76.90
4406;DHT22;2216;53.806;11.598;2023-03-26T01:46:55;8.00;76.90
4406;DHT22;2216;53.806;11.598;2023-03-26T01:49:26;8.00;76.90
4406;DHT22;2216;53.806;11.598;2023-03-26T01:51:54;8.00;76.90
4406;DHT22;2216;53.806;11.598;2023-03-26T01:54:24;8.00;77.00
4406;DHT22;2216;53.806;11.598;2023-03-26T01:57:09;8.00;77.00
4406;DHT22;2216;53.806;11.598;2023-03-26T02:00:13;8.00;76.90
4406;DHT22;2216;53.806;11.598;2023-03-26T02:03:36;8.00;77.30
4406;DHT22;2216;53.806;11.598;2023-03-26T02:06:24;8.00;77.00
4406;DHT22;2216;53.806;11.598;2023-03-26T02:09:01;8.00;77.00
4406;DHT22;2216;53.806;11.598;2023-03-26T02:11:29;8.00;76.90
4406;DHT22;2216;53.806;11.598;2023-03-26T02:13:55;8.00;77.10
4406;DHT22;2216;53.806;11.598;2023-03-26T02:16:20;8.00;77.20
4406;DHT22;2216;53.806;11.598;2023-03-26T02:18:47;8.00;77.00
4406;DHT22;2216;53.806;11.598;2023-03-26T02:21:20;8.00;77.10
4406;DHT22;2216;53.806;11.598;2023-03-26T02:23:49;8.00;77.10
4406;DHT22;2216;53.806;11.598;2023-03-26T02:26:22;8.00;77.30
4406;DHT22;2216;53.806;11.598;2023-03-26T02:28:48;8.00;77.10
4406;DHT22;2216;53.806;11.598;2023-03-26T02:31:14;8.00;77.00
4406;DHT22;2216;53.806;11.598;2023-03-26T02:33:41;8.00;77.10
4406;DHT22;2216;53.806;11.598;2023-03-26T02:36:09;8.00;77.00
4406;DHT22;2216;53.806;11.598;2023-03-26T02:38:38;8.00;76.90
4406;DHT22;2216;53.806;11.598;2023-03-26T02:41:06;8.00;76.90
4406;DHT22;2216;53.806;11.598;2023-03-26T02:43:32;8.00;76.90
4406;DHT22;2216;53.806;11.598;2023-03-26T02:45:57;8.00;76.90
4406;DHT22;2216;53.806;11.598;2023-03-26T02:48:23;8.00;76.90
4406;DHT22;2216;53.806;11.598;2023-03-26T02:50:50;8.00;76.80
4406;DHT22;2216;53.806;11.598;2023-03-26T02:53:19;8.00;76.90
4406;DHT22;2216;53.806;11.598;2023-03-26T02:55:46;8.00;76.90
4406;DHT22;2216;53.806;11.598;2023-03-26T02:58:12;8.00;76.90
4406;DHT22;2216;53.806;11.598;2023-03-26T03:00:43;8.00;77.00
4406;DHT22;2216;53.806;11.598;2023-03-26T03:03:11;8.00;76.90
4406;DHT22;2216;53.806;11.598;2023-03-26T03:05:37;8.00;77.00
4406;DHT22;2216;53.806;11.598;2023-03-26T03:08:07;7.90;76.80
4406;DHT22;2216;53.806;11.598;2023-03-26T03:10:34;7.90;76.90
4406;DHT22;2216;53.806;11.598;2023-03-26T03:13:02;7.90;76.90
4406;DHT22;2216;53.806;11.598;2023-03-26T03:15:30;7.90;77.00
4406;DHT22;2216;53.806;11.598;2023-03-26T03:17:55;7.90;77.00
4406;DHT22;2216;53.806;11.598;2023-03-26T03:20:21;7.90;76.80
4406;DHT22;2216;53.806;11.598;2023-03-26T03:22:47;7.90;76.90
4406;DHT22;2216;53.806;11.598;2023-03-26T03:25:12;7.90;76.80
4406;DHT22;2216;53.806;11.598;2023-03-26T03:27:40;7.90;76.90
4406;DHT22;2216;53.806;11.598;2023-03-26T03:30:07;7.80;77.00
4406;DHT22;2216;53.806;11.598;2023-03-26T03:32:35;7.80;77.00
4406;DHT22;2216;53.806;11.598;2023-03-26T03:35:01;7.80;76.80
4406;DHT22;2216;53.806;11.598;2023-03-26T03:37:26;7.80;76.90
4406;DHT22;2216;53.806;11.598;2023-03-26T03:39:52;7.70;76.80
4406;DHT22;2216;53.806;11.598;2023-03-26T03:42:18;7.80;76.90
4406;DHT22;2216;53.806;11.598;2023-03-26T03:44:44;7.70;76.90
4406;DHT22;2216;53.806;11.598;2023-03-26T03:47:10;7.70;76.80
4406;DHT22;2216;53.806;11.598;2023-03-26T03:49:38;7.70;77.00
4406;DHT22;2216;53.806;11.598;2023-03-26T03:52:05;7.70;76.80
4406;DHT22;2216;53.806;11.598;2023-03-26T03:54:31;7.70;76.80
4406;DHT22;2216;53.806;11.598;2023-03-26T03:56:56;7.70;77.50
4406;DHT22;2216;53.806;11.598;2023-03-26T03:59:22;7.70;76.80
4406;DHT22;2216;53.806;11.598;2023-03-26T04:01:48;7.70;76.90
4406;DHT22;2216;53.806;11.598;2023-03-26T04:04:15;7.60;76.90
4406;DHT22;2216;53.806;11.598;2023-03-26T04:06:42;7.50;76.80
4406;DHT22;2216;53.806;11.598;2023-03-26T04:09:08;7.60;76.80
4406;DHT22;2216;53.806;11.598;2023-03-26T04:11:36;7.60;76.90
4406;DHT22;2216;53.806;11.598;2023-03-26T04:14:02;7.60;76.90
4406;DHT22;2216;53.806;11.598;2023-03-26T04:16:28;7.60;77.20
4406;DHT22;2216;53.806;11.598;2023-03-26T04:18:53;7.60;77.10
4406;DHT22;2216;53.806;11.598;2023-03-26T04:21:21;7.50;77.20
4406;DHT22;2216;53.806;11.598;2023-03-26T04:23:48;7.50;77.00
4406;DHT22;2216;53.806;11.598;2023-03-26T04:26:16;7.50;76.90
4406;DHT22;2216;53.806;11.598;2023-03-26T04:28:48;7.50;76.90
4406;DHT22;2216;53.806;11.598;2023-03-26T04:31:19;7.50;76.90
4406;DHT22;2216;53.806;11.598;2023-03-26T04:33:49;7.50;77.00
4406;DHT22;2216;53.806;11.598;2023-03-26T04:36:27;7.40;76.80
4406;DHT22;2216;53.806;11.598;2023-03-26T04:38:54;7.40;76.80
4406;DHT22;2216;53.806;11.598;2023-03-26T04:41:20;7.40;76.70
4406;DHT22;2216;53.806;11.598;2023-03-26T04:43:53;7.40;76.70
4406;DHT22;2216;53.806;11.598;2023-03-26T04:46:20;7.30;76.60
4406;DHT22;2216;53.806;11.598;2023-03-26T04:48:52;7.30;76.60
4406;DHT22;2216;53.806;11.598;2023-03-26T04:51:23;7.30;76.60
4406;DHT22;2216;53.806;11.598;2023-03-26T04:53:53;7.20;76.50
4406;DHT22;2216;53.806;11.598;2023-03-26T04:56:48;7.10;76.40
4406;DHT22;2216;53.806;11.598;2023-03-26T04:59:27;7.10;76.50
4406;DHT22;2216;53.806;11.598;2023-03-26T05:01:57;7.10;76.50
4406;DHT22;2216;53.806;11.598;2023-03-26T05:04:24;7.00;76.50
4406;DHT22;2216;53.806;11.598;2023-03-26T05:06:51;7.00;76.50
4406;DHT22;2216;53.806;11.598;2023-03-26T05:09:18;7.00;76.50
4406;DHT22;2216;53.806;11.598;2023-03-26T05:11:44;6.90;76.40
4406;DHT22;2216;53.806;11.598;2023-03-26T05:14:10;6.90;76.40
4406;DHT22;2216;53.806;11.598;2023-03-26T05:16:36;6.80;76.30
4406;DHT22;2216;53.806;11.598;2023-03-26T05:19:03;6.80;76.30
4406;DHT22;2216;53.806;11.598;2023-03-26T05:21:29;6.70;76.20
4406;DHT22;2216;53.806;11.598;2023-03-26T05:23:55;6.70;76.30
4406;DHT22;2216;53.806;11.598;2023-03-26T05:26:21;6.70;76.30
4406;DHT22;2216;53.806;11.598;2023-03-26T05:28:46;6.60;76.20
4406;DHT22;2216;53.806;11.598;2023-03-26T05:31:12;6.60;76.30
4406;DHT22;2216;53.806;11.598;2023-03-26T05:33:39;6.50;76.30
4406;DHT22;2216;53.806;11.598;2023-03-26T05:36:10;6.50;76.30
4406;DHT22;2216;53.806;11.598;2023-03-26T05:38:40;6.50;76.40
4406;DHT22;2216;53.806;11.598;2023-03-26T05:41:08;6.40;76.40
4406;DHT22;2216;53.806;11.598;2023-03-26T05:43:34;6.40;76.30
4406;DHT22;2216;53.806;11.598;2023-03-26T05:46:01;6.40;76.40
4406;DHT22;2216;53.806;11.598;2023-03-26T05:48:27;6.30;76.50
4406;DHT22;2216;53.806;11.598;2023-03-26T05:50:57;6.70;77.00
4406;DHT22;2216;53.806;11.598;2023-03-26T05:53:25;6.40;77.00
4406;DHT22;2216;53.806;11.598;2023-03-26T05:55:52;6.40;77.10
4406;DHT22;2216;53.806;11.598;2023-03-26T05:58:23;6.40;77.20
4406;DHT22;2216;53.806;11.598;2023-03-26T06:00:59;6.40;77.20
4406;DHT22;2216;53.806;11.598;2023-03-26T06:03:30;6.40;77.20
4406;DHT22;2216;53.806;11.598;2023-03-26T06:05:57;6.40;77.20
4406;DHT22;2216;53.806;11.598;2023-03-26T06:08:23;6.50;77.30
4406;DHT22;2216;53.806;11.598;2023-03-26T06:10:50;6.50;77.30
4406;DHT22;2216;53.806;11.598;2023-03-26T06:13:22;6.60;77.30
4406;DHT22;2216;53.806;11.598;2023-03-26T06:15:48;6.60;77.30
4406;DHT22;2216;53.806;11.598;2023-03-26T06:18:13;6.60;77.40
4406;DHT22;2216;53.806;11.598;2023-03-26T06:20:42;6.60;77.30
4406;DHT22;2216;53.806;11.598;2023-03-26T06:23:08;6.70;77.50
4406;DHT22;2216;53.806;11.598;2023-03-26T06:25:34;6.60;77.30
4406;DHT22;2216;53.806;11.598;2023-03-26T06:28:00;6.60;77.20
4406;DHT22;2216;53.806;11.598;2023-03-26T06:30:25;6.70;77.30
4406;DHT22;2216;53.806;11.598;2023-03-26T06:32:51;6.70;77.30
4406;DHT22;2216;53.806;11.598;2023-03-26T06:35:17;6.70;77.30
4406;DHT22;2216;53.806;11.598;2023-03-26T06:37:43;6.70;77.30
4406;DHT22;2216;53.806;11.598;2023-03-26T06:40:09;6.80;77.50
4406;DHT22;2216;53.806;11.598;2023-03-26T06:42:35;6.80;77.40
4406;DHT22;2216;53.806;11.598;2023-03-26T06:45:00;6.90;77.50
4406;DHT22;2216;53.806;11.598;2023-03-26T06:47:26;6.90;77.40
4406;DHT22;2216;53.806;11.598;2023-03-26T06:49:52;6.90;77.40
4406;DHT22;2216;53.806;11.598;2023-03-26T06:52:17;6.90;77.40
4406;DHT22;2216;53.806;11.598;2023-03-26T06:54:43;7.00;77.40
4406;DHT22;2216;53.806;11.598;2023-03-26T06:57:09;7.00;77.40
4406;DHT22;2216;53.806;11.598;2023-03-26T06:59:35;7.00;77.30
4406;DHT22;2216;53.806;11.598;2023-03-26T07:02:00;7.00;77.30
4406;DHT22;2216;53.806;11.598;2023-03-26T07:04:26;7.00;77.30
4406;DHT22;2216;53.806;11.598;2023-03-26T07:06:52;7.00;77.30
4406;DHT22;2216;53.806;11.598;2023-03-26T07:09:18;7.10;77.20
4406;DHT22;2216;53.806;11.598;2023-03-26T07:11:43;7.10;77.20
4406;DHT22;2216;53.806;11.598;2023-03-26T07:14:09;7.10;77.10
4406;DHT22;2216;53.806;11.598;2023-03-26T07:16:35;7.10;77.00
4406;DHT22;2216;53.806;11.598;2023-03-26T07:19:00;7.10;77.10
4406;DHT22;2216;53.806;11.598;2023-03-26T07:21:26;7.20;77.20
4406;DHT22;2216;53.806;11.598;2023-03-26T07:23:52;7.10;77.60
4406;DHT22;2216;53.806;11.598;2023-03-26T07:27:26;7.20;77.90
4406;DHT22;2216;53.806;11.598;2023-03-26T07:30:04;7.30;78.10
4406;DHT22;2216;53.806;11.598;2023-03-26T07:32:39;7.40;77.90
4406;DHT22;2216;53.806;11.598;2023-03-26T07:35:29;7.50;78.00
4406;DHT22;2216;53.806;11.598;2023-03-26T07:41:14;7.60;78.00
4406;DHT22;2216;53.806;11.598;2023-03-26T07:44:20;7.70;78.10
4406;DHT22;2216;53.806;11.598;2023-03-26T07:46:48;7.80;78.40
4406;DHT22;2216;53.806;11.598;2023-03-26T07:49:17;7.90;78.60
4406;DHT22;2216;53.806;11.598;2023-03-26T07:51:45;8.00;78.30
4406;DHT22;2216;53.806;11.598;2023-03-26T07:54:11;8.10;77.90
4406;DHT22;2216;53.806;11.598;2023-03-26T07:57:00;8.20;77.20
4406;DHT22;2216;53.806;11.598;2023-03-26T07:59:37;8.20;76.80
4406;DHT22;2216;53.806;11.598;2023-03-26T08:05:13;8.20;76.60
4406;DHT22;2216;53.806;11.598;2023-03-26T08:07:51;8.30;76.90
4406;DHT22;2216;53.806;11.598;2023-03-26T08:10:54;8.40;77.10
4406;DHT22;2216;53.806;11.598;2023-03-26T08:16:52;8.50;77.20
4406;DHT22;2216;53.806;11.598;2023-03-26T08:19:31;8.50;77.00
4406;DHT22;2216;53.806;11.598;2023-03-26T08:22:16;8.50;76.60
4406;DHT22;2216;53.806;11.598;2023-03-26T08:27:54;8.50;76.40
4406;DHT22;2216;53.806;11.598;2023-03-26T08:30:28;8.40;76.10
4406;DHT22;2216;53.806;11.598;2023-03-26T08:32:58;8.40;76.20
4406;DHT22;2216;53.806;11.598;2023-03-26T08:35:26;8.40;76.30
4406;DHT22;2216;53.806;11.598;2023-03-26T08:37:52;8.40;76.30
4406;DHT22;2216;53.806;11.598;2023-03-26T08:40:41;8.30;76.30
4406;DHT22;2216;53.806;11.598;2023-03-26T09:01:34;8.40;76.50
4406;DHT22;2216;53.806;11.598;2023-03-26T09:16:57;8.50;76.30
4406;DHT22;2216;53.806;11.598;2023-03-26T09:29:40;8.80;77.30
4406;DHT22;2216;53.806;11.598;2023-03-26T09:32:31;9.00;78.10
4406;DHT22;2216;53.806;11.598;2023-03-26T09:41:13;9.60;77.90
4406;DHT22;2216;53.806;11.598;2023-03-26T09:44:20;9.70;77.30
4406;DHT22;2216;53.806;11.598;2023-03-26T09:47:28;9.70;76.70
4406;DHT22;2216;53.806;11.598;2023-03-26T10:11:00;10.80;77.00
4406;DHT22;2216;53.806;11.598;2023-03-26T10:14:02;10.90;75.90
4406;DHT22;2216;53.806;11.598;2023-03-26T10:17:08;11.00;75.60
4406;DHT22;2216;53.806;11.598;2023-03-26T10:20:30;11.00;75.20
4406;DHT22;2216;53.806;11.598;2023-03-26T10:26:42;11.00;75.60
4406;DHT22;2216;53.806;11.598;2023-03-26T10:38:14;11.10;76.80
4406;DHT22;2216;53.806;11.598;2023-03-26T10:41:12;11.30;77.40
4406;DHT22;2216;53.806;11.598;2023-03-26T10:44:08;11.50;77.60
4406;DHT22;2216;53.806;11.598;2023-03-26T10:50:45;11.90;76.70
4406;DHT22;2216;53.806;11.598;2023-03-26T10:53:30;12.00;75.70
4406;DHT22;2216;53.806;11.598;2023-03-26T10:56:26;11.90;75.20
4406;DHT22;2216;53.806;11.598;2023-03-26T10:58:55;12.00;74.20
4406;DHT22;2216;53.806;11.598;2023-03-26T11:01:31;12.10;76.30
4406;DHT22;2216;53.806;11.598;2023-03-26T11:07:34;12.60;77.70
4406;DHT22;2216;53.806;11.598;2023-03-26T11:10:10;12.80;77.20
4406;DHT22;2216;53.806;11.598;2023-03-26T11:12:58;12.90;77.10
4406;DHT22;2216;53.806;11.598;2023-03-26T11:15:35;13.00;77.10
4406;DHT22;2216;53.806;11.598;2023-03-26T11:20:56;13.40;76.50
4406;DHT22;2216;53.806;11.598;2023-03-26T11:23:36;13.50;76.40
4406;DHT22;2216;53.806;11.598;2023-03-26T11:26:12;13.60;76.10
4406;DHT22;2216;53.806;11.598;2023-03-26T11:31:44;13.60;75.40
4406;DHT22;2216;53.806;11.598;2023-03-26T11:34:15;13.60;75.80
4406;DHT22;2216;53.806;11.598;2023-03-26T11:36:46;13.70;76.30
4406;DHT22;2216;53.806;11.598;2023-03-26T11:39:22;13.80;75.50
4406;DHT22;2216;53.806;11.598;2023-03-26T11:41:53;13.90;75.90
4406;DHT22;2216;53.806;11.598;2023-03-26T11:44:33;13.80;75.50
4406;DHT22;2216;53.806;11.598;2023-03-26T11:47:09;13.80;75.20
4406;DHT22;2216;53.806;11.598;2023-03-26T11:49:37;13.80;75.00
4406;DHT22;2216;53.806;11.598;2023-03-26T11:52:03;13.70;74.80
4406;DHT22;2216;53.806;11.598;2023-03-26T11:54:29;13.60;73.90
4406;DHT22;2216;53.806;11.598;2023-03-26T11:57:02;13.50;73.70
4406;DHT22;2216;53.806;11.598;2023-03-26T11:59:55;13.40;74.10
4406;DHT22;2216;53.806;11.598;2023-03-26T12:02:26;13.20;74.30
4406;DHT22;2216;53.806;11.598;2023-03-26T12:05:22;13.20;74.50
4406;DHT22;2216;53.806;11.598;2023-03-26T12:08:00;13.20;74.70
4406;DHT22;2216;53.806;11.598;2023-03-26T12:10:31;13.10;72.40
4406;DHT22;2216;53.806;11.598;2023-03-26T12:13:01;13.10;74.20
4406;DHT22;2216;53.806;11.598;2023-03-26T12:15:31;13.00;74.00
4406;DHT22;2216;53.806;11.598;2023-03-26T12:17:58;12.90;74.10
4406;DHT22;2216;53.806;11.598;2023-03-26T12:22:51;12.70;74.00
4406;DHT22;2216;53.806;11.598;2023-03-26T12:28:08;12.70;73.30
4406;DHT22;2216;53.806;11.598;2023-03-26T12:31:03;12.50;74.00
4406;DHT22;2216;53.806;11.598;2023-03-26T12:33:32;12.50;74.20
4406;DHT22;2216;53.806;11.598;2023-03-26T12:36:16;12.50;74.30
4406;DHT22;2216;53.806;11.598;2023-03-26T12:38:44;12.40;74.40
4406;DHT22;2216;53.806;11.598;2023-03-26T12:41:18;12.40;73.60
4406;DHT22;2216;53.806;11.598;2023-03-26T12:43:50;12.40;73.60
4406;DHT22;2216;53.806;11.598;2023-03-26T12:48:51;12.20;72.20
4406;DHT22;2216;53.806;11.598;2023-03-26T12:51:39;12.20;74.10
4406;DHT22;2216;53.806;11.598;2023-03-26T12:54:39;12.20;73.80
4406;DHT22;2216;53.806;11.598;2023-03-26T12:57:24;12.30;73.70
4406;DHT22;2216;53.806;11.598;2023-03-26T13:03:09;12.40;74.40
4406;DHT22;2216;53.806;11.598;2023-03-26T13:11:50;12.30;73.90
4406;DHT22;2216;53.806;11.598;2023-03-26T13:14:47;12.30;73.10
4406;DHT22;2216;53.806;11.598;2023-03-26T13:17:29;12.30;73.90
4406;DHT22;2216;53.806;11.598;2023-03-26T13:22:45;12.20;73.90
4406;DHT22;2216;53.806;11.598;2023-03-26T13:26:08;12.20;71.60
4406;DHT22;2216;53.806;11.598;2023-03-26T13:29:06;12.10;72.30
4406;DHT22;2216;53.806;11.598;2023-03-26T13:34:57;12.10;74.00
4406;DHT22;2216;53.806;11.598;2023-03-26T13:40:29;12.30;74.00
4406;DHT22;2216;53.806;11.598;2023-03-26T13:43:20;12.40;73.60
4406;DHT22;2216;53.806;11.598;2023-03-26T13:46:05;12.40;72.20
4406;DHT22;2216;53.806;11.598;2023-03-26T13:49:10;12.60;74.20
4406;DHT22;2216;53.806;11.598;2023-03-26T13:51:49;12.50;74.10
4406;DHT22;2216;53.806;11.598;2023-03-26T13:54:36;12.70;74.30
4406;DHT22;2216;53.806;11.598;2023-03-26T13:57:19;12.80;73.50
4406;DHT22;2216;53.806;11.598;2023-03-26T14:00:12;12.80;73.00
4406;DHT22;2216;53.806;11.598;2023-03-26T14:02:48;12.80;72.70
4406;DHT22;2216;53.806;11.598;2023-03-26T14:05:24;12.80;69.40
4406;DHT22;2216;53.806;11.598;2023-03-26T14:08:03;12.80;71.30
4406;DHT22;2216;53.806;11.598;2023-03-26T14:10:40;12.70;69.90
4406;DHT22;2216;53.806;11.598;2023-03-26T14:13:15;12.60;72.00
4406;DHT22;2216;53.806;11.598;2023-03-26T14:15:55;12.50;71.10
4406;DHT22;2216;53.806;11.598;2023-03-26T14:18:30;12.40;69.60
4406;DHT22;2216;53.806;11.598;2023-03-26T14:21:12;12.40;69.50
4406;DHT22;2216;53.806;11.598;2023-03-26T14:27:41;12.10;70.30
4406;DHT22;2216;53.806;11.598;2023-03-26T14:33:35;11.80;70.20
4406;DHT22;2216;53.806;11.598;2023-03-26T14:42:40;11.50;70.40
4406;DHT22;2216;53.806;11.598;2023-03-26T14:45:39;11.40;70.60
4406;DHT22;2216;53.806;11.598;2023-03-26T14:48:42;11.30;69.00
4406;DHT22;2216;53.806;11.598;2023-03-26T14:51:38;11.20;68.50
4406;DHT22;2216;53.806;11.598;2023-03-26T14:54:12;11.10;69.00
4406;DHT22;2216;53.806;11.598;2023-03-26T15:00:15;10.90;69.90
4406;DHT22;2216;53.806;11.598;2023-03-26T15:03:00;10.90;70.60
4406;DHT22;2216;53.806;11.598;2023-03-26T15:14:55;10.70;69.10
4406;DHT22;2216;53.806;11.598;2023-03-26T15:21:18;10.60;68.90
4406;DHT22;2216;53.806;11.598;2023-03-26T15:53:35;9.60;68.80
4406;DHT22;2216;53.806;11.598;2023-03-26T15:59:47;9.50;68.90
4406;DHT22;2216;53.806;11.598;2023-03-26T16:02:35;9.40;69.20
4406;DHT22;2216;53.806;11.598;2023-03-26T16:07:49;9.30;69.60
4406;DHT22;2216;53.806;11.598;2023-03-26T16:10:54;9.20;69.20
4406;DHT22;2216;53.806;11.598;2023-03-26T16:18:57;9.00;69.10
4406;DHT22;2216;53.806;11.598;2023-03-26T16:21:54;8.90;67.50
4406;DHT22;2216;53.806;11.598;2023-03-26T16:24:45;8.90;69.30
4406;DHT22;2216;53.806;11.598;2023-03-26T16:32:32;8.70;69.70
4406;DHT22;2216;53.806;11.598;2023-03-26T16:35:01;8.70;69.30
4406;DHT22;2216;53.806;11.598;2023-03-26T16:48:38;8.50;69.60
4406;DHT22;2216;53.806;11.598;2023-03-26T16:51:35;8.40;69.00
4406;DHT22;2216;53.806;11.598;2023-03-26T16:57:09;8.20;68.70
4406;DHT22;2216;53.806;11.598;2023-03-26T17:00:02;8.10;69.00
4406;DHT22;2216;53.806;11.598;2023-03-26T17:05:36;8.00;68.70
4406;DHT22;2216;53.806;11.598;2023-03-26T17:15:18;7.90;70.70
4406;DHT22;2216;53.806;11.598;2023-03-26T17:18:34;7.80;69.70
4406;DHT22;2216;53.806;11.598;2023-03-26T17:21:43;7.70;69.90
4406;DHT22;2216;53.806;11.598;2023-03-26T17:24:33;7.70;69.90
4406;DHT22;2216;53.806;11.598;2023-03-26T17:27:32;7.70;70.00
4406;DHT22;2216;53.806;11.598;2023-03-26T17:33:28;7.60;69.80
4406;DHT22;2216;53.806;11.598;2023-03-26T17:41:11;7.50;70.20
4406;DHT22;2216;53.806;11.598;2023-03-26T17:43:49;7.50;70.30
4406;DHT22;2216;53.806;11.598;2023-03-26T17:46:41;7.50;70.40
4406;DHT22;2216;53.806;11.598;2023-03-26T17:52:09;7.40;70.50
4406;DHT22;2216;53.806;11.598;2023-03-26T17:54:49;7.50;70.60
4406;DHT22;2216;53.806;11.598;2023-03-26T17:57:33;7.40;70.50
4406;DHT22;2216;53.806;11.598;2023-03-26T18:00:05;7.40;70.50
4406;DHT22;2216;53.806;11.598;2023-03-26T18:02:37;7.30;70.50
4406;DHT22;2216;53.806;11.598;2023-03-26T18:05:08;7.30;70.40
4406;DHT22;2216;53.806;11.598;2023-03-26T18:08:18;7.30;71.20
4406;DHT22;2216;53.806;11.598;2023-03-26T18:11:20;7.20;70.30
4406;DHT22;2216;53.806;11.598;2023-03-26T18:17:19;7.10;70.30
4406;DHT22;2216;53.806;11.598;2023-03-26T18:19:51;7.00;70.20
4406;DHT22;2216;53.806;11.598;2023-03-26T18:22:24;7.00;70.20
4406;DHT22;2216;53.806;11.598;2023-03-26T18:25:00;6.90;70.30
4406;DHT22;2216;53.806;11.598;2023-03-26T18:27:36;6.90;70.30
4406;DHT22;2216;53.806;11.598;2023-03-26T18:30:15;6.80;70.20
4406;DHT22;2216;53.806;11.598;2023-03-26T18:32:59;6.70;70.20
4406;DHT22;2216;53.806;11.598;2023-03-26T18:35:49;6.70;70.30
4406;DHT22;2216;53.806;11.598;2023-03-26T18:38:19;6.60;70.20
4406;DHT22;2216;53.806;11.598;2023-03-26T18:40:48;6.60;70.20
4406;DHT22;2216;53.806;11.598;2023-03-26T18:43:18;6.50;70.20
4406;DHT22;2216;53.806;11.598;2023-03-26T18:45:47;6.50;70.30
4406;DHT22;2216;53.806;11.598;2023-03-26T18:48:20;6.40;70.40
4406;DHT22;2216;53.806;11.598;2023-03-26T18:50:52;6.30;70.30
4406;DHT22;2216;53.806;11.598;2023-03-26T18:53:22;6.30;70.40
4406;DHT22;2216;53.806;11.598;2023-03-26T18:55:51;6.30;70.40
4406;DHT22;2216;53.806;11.598;2023-03-26T18:58:24;6.20;70.40
4406;DHT22;2216;53.806;11.598;2023-03-26T19:01:05;6.10;70.30
4406;DHT22;2216;53.806;11.598;2023-03-26T19:03:38;6.10;70.40
4406;DHT22;2216;53.806;11.598;2023-03-26T19:06:08;6.00;70.30
4406;DHT22;2216;53.806;11.598;2023-03-26T19:08:37;6.00;70.40
4406;DHT22;2216;53.806;11.598;2023-03-26T19:11:08;5.90;70.40
4406;DHT22;2216;53.806;11.598;2023-03-26T19:13:37;5.90;70.40
4406;DHT22;2216;53.806;11.598;2023-03-26T19:16:28;5.80;70.40
4406;DHT22;2216;53.806;11.598;2023-03-26T19:18:58;5.80;70.50
4406;DHT22;2216;53.806;11.598;2023-03-26T19:21:25;5.70;70.50
4406;DHT22;2216;53.806;11.598;2023-03-26T19:23:52;5.70;70.50
4406;DHT22;2216;53.806;11.598;2023-03-26T19:26:19;5.60;70.40
4406;DHT22;2216;53.806;11.598;2023-03-26T19:28:47;5.60;70.50
4406;DHT22;2216;53.806;11.598;2023-03-26T19:36:33;5.50;70.50
4406;DHT22;2216;53.806;11.598;2023-03-26T19:39:10;5.50;70.60
4406;DHT22;2216;53.806;11.598;2023-03-26T19:41:41;5.40;70.60
4406;DHT22;2216;53.806;11.598;2023-03-26T19:44:25;5.30;70.50
4406;DHT22;2216;53.806;11.598;2023-03-26T19:47:05;5.30;70.60
4406;DHT22;2216;53.806;11.598;2023-03-26T19:49:53;5.20;70.50
4406;DHT22;2216;53.806;11.598;2023-03-26T19:52:39;5.20;70.60
4406;DHT22;2216;53.806;11.598;2023-03-26T19:57:32;5.10;70.60
4406;DHT22;2216;53.806;11.598;2023-03-26T20:00:01;5.10;70.70
4406;DHT22;2216;53.806;11.598;2023-03-26T20:02:29;5.00;70.70
4406;DHT22;2216;53.806;11.598;2023-03-26T20:04:55;5.00;70.70
4406;DHT22;2216;53.806;11.598;2023-03-26T20:07:23;5.00;70.70
4406;DHT22;2216;53.806;11.598;2023-03-26T20:09:55;4.90;70.70
4406;DHT22;2216;53.806;11.598;2023-03-26T20:12:21;4.90;70.80
4406;DHT22;2216;53.806;11.598;2023-03-26T20:14:47;4.90;70.80
4406;DHT22;2216;53.806;11.598;2023-03-26T20:17:15;4.80;71.50
4406;DHT22;2216;53.806;11.598;2023-03-26T20:19:45;4.80;70.80
4406;DHT22;2216;53.806;11.598;2023-03-26T20:22:16;4.70;70.70
4406;DHT22;2216;53.806;11.598;2023-03-26T20:24:46;4.70;70.80
4406;DHT22;2216;53.806;11.598;2023-03-26T20:27:12;4.70;70.90
4406;DHT22;2216;53.806;11.598;2023-03-26T20:29:39;4.70;70.90
4406;DHT22;2216;53.806;11.598;2023-03-26T20:32:19;4.60;70.90
4406;DHT22;2216;53.806;11.598;2023-03-26T20:34:49;4.60;71.00
4406;DHT22;2216;53.806;11.598;2023-03-26T20:37:15;4.70;71.20
4406;DHT22;2216;53.806;11.598;2023-03-26T20:39:41;4.60;71.10
4406;DHT22;2216;53.806;11.598;2023-03-26T20:42:08;4.60;71.10
4406;DHT22;2216;53.806;11.598;2023-03-26T20:44:34;4.60;71.20
4406;DHT22;2216;53.806;11.598;2023-03-26T20:47:00;4.60;71.30
4406;DHT22;2216;53.806;11.598;2023-03-26T20:49:26;4.60;71.30
4406;DHT22;2216;53.806;11.598;2023-03-26T20:51:54;4.50;71.20
4406;DHT22;2216;53.806;11.598;2023-03-26T20:54:24;4.50;71.20
4406;DHT22;2216;53.806;11.598;2023-03-26T20:56:51;4.50;71.20
4406;DHT22;2216;53.806;11.598;2023-03-26T20:59:21;4.50;71.20
4406;DHT22;2216;53.806;11.598;2023-03-26T21:01:51;4.50;71.40
4406;DHT22;2216;53.806;11.598;2023-03-26T21:04:19;4.50;71.10
4406;DHT22;2216;53.806;11.598;2023-03-26T21:06:46;4.40;71.10
4406;DHT22;2216;53.806;11.598;2023-03-26T21:09:13;4.40;71.10